sensor_id;sensor_type;location;lat;lon;timestamp;P1;durP1;ratioP1;P2;durP2;ratioP2
73650;SDS011;61944;52.538;6.108;2023-02-21T00:00:59;60.38;;;27.45;;
73650;SDS011;61944;52.538;6.108;2023-02-21T00:03:43;53.17;;;23.88;;
73650;SDS011;61944;52.538;6.108;2023-02-21T00:06:27;57.20;;;25.23;;
73650;SDS011;61944;52.538;6.108;2023-02-21T00:09:11;56.22;;;24.80;;
73650;SDS011;61944;52.538;6.108;2023-02-21T00:11:55;62.50;;;24.63;;
73650;SDS011;61944;52.538;6.108;2023-02-21T00:14:39;58.13;;;24.08;;
73650;SDS011;61944;52.538;6.108;2023-02-21T00:17:23;55.95;;;26.10;;
73650;SDS011;61944;52.538;6.108;2023-02-21T00:20:07;56.13;;;22.67;;
73650;SDS011;61944;52.538;6.108;2023-02-21T00:22:51;56.42;;;25.33;;
73650;SDS011;61944;52.538;6.108;2023-02-21T00:25:35;53.70;;;26.05;;
73650;SDS011;61944;52.538;6.108;2023-02-21T00:28:19;50.80;;;23.00;;
73650;SDS011;61944;52.538;6.108;2023-02-21T00:31:03;55.88;;;23.20;;
73650;SDS011;61944;52.538;6.108;2023-02-21T00:33:47;61.95;;;26.90;;
73650;SDS011;61944;52.538;6.108;2023-02-21T00:36:31;46.88;;;22.15;;
73650;SDS011;61944;52.538;6.108;2023-02-21T00:39:15;65.18;;;27.67;;
73650;SDS011;61944;52.538;6.108;2023-02-21T00:41:59;52.47;;;23.15;;
73650;SDS011;61944;52.538;6.108;2023-02-21T00:44:43;53.90;;;23.73;;
73650;SDS011;61944;52.538;6.108;2023-02-21T00:47:27;53.42;;;23.88;;
73650;SDS011;61944;52.538;6.108;2023-02-21T00:50:12;62.65;;;26.83;;
73650;SDS011;61944;52.538;6.108;2023-02-21T00:52:56;51.35;;;24.20;;
73650;SDS011;61944;52.538;6.108;2023-02-21T00:55:40;69.28;;;26.83;;
73650;SDS011;61944;52.538;6.108;2023-02-21T00:58:24;59.00;;;27.05;;
73650;SDS011;61944;52.538;6.108;2023-02-21T01:01:08;49.65;;;22.13;;
73650;SDS011;61944;52.538;6.108;2023-02-21T01:03:52;66.97;;;26.17;;
73650;SDS011;61944;52.538;6.108;2023-02-21T01:06:36;64.47;;;28.58;;
73650;SDS011;61944;52.538;6.108;2023-02-21T01:09:20;58.92;;;28.17;;
73650;SDS011;61944;52.538;6.108;2023-02-21T01:12:04;62.38;;;26.38;;
73650;SDS011;61944;52.538;6.108;2023-02-21T01:14:48;57.97;;;25.75;;
73650;SDS011;61944;52.538;6.108;2023-02-21T01:17:32;62.35;;;25.10;;
73650;SDS011;61944;52.538;6.108;2023-02-21T01:20:16;61.55;;;25.38;;
73650;SDS011;61944;52.538;6.108;2023-02-21T01:23:00;60.72;;;26.80;;
73650;SDS011;61944;52.538;6.108;2023-02-21T01:25:44;58.88;;;27.38;;
73650;SDS011;61944;52.538;6.108;2023-02-21T01:28:28;65.70;;;27.33;;
73650;SDS011;61944;52.538;6.108;2023-02-21T01:31:16;62.42;;;25.65;;
73650;SDS011;61944;52.538;6.108;2023-02-21T01:34:01;58.53;;;26.63;;
73650;SDS011;61944;52.538;6.108;2023-02-21T01:36:45;63.75;;;26.92;;
73650;SDS011;61944;52.538;6.108;2023-02-21T01:39:29;53.72;;;24.67;;
73650;SDS011;61944;52.538;6.108;2023-02-21T01:42:13;68.15;;;28.15;;
73650;SDS011;61944;52.538;6.108;2023-02-21T01:48:03;61.97;;;27.58;;
73650;SDS011;61944;52.538;6.108;2023-02-21T01:50:47;73.22;;;27.83;;
73650;SDS011;61944;52.538;6.108;2023-02-21T01:53:31;66.35;;;27.27;;
73650;SDS011;61944;52.538;6.108;2023-02-21T01:56:15;63.13;;;25.92;;
73650;SDS011;61944;52.538;6.108;2023-02-21T01:58:59;63.85;;;27.90;;
73650;SDS011;61944;52.538;6.108;2023-02-21T02:02:02;64.90;;;28.08;;
73650;SDS011;61944;52.538;6.108;2023-02-21T02:04:52;73.10;;;30.55;;
73650;SDS011;61944;52.538;6.108;2023-02-21T02:07:36;77.30;;;26.48;;
73650;SDS011;61944;52.538;6.108;2023-02-21T02:10:21;71.25;;;27.45;;
73650;SDS011;61944;52.538;6.108;2023-02-21T02:15:39;60.78;;;27.77;;
73650;SDS011;61944;52.538;6.108;2023-02-21T02:18:31;64.03;;;27.60;;
73650;SDS011;61944;52.538;6.108;2023-02-21T02:21:26;73.50;;;30.27;;
73650;SDS011;61944;52.538;6.108;2023-02-21T02:38:11;67.15;;;27.75;;
73650;SDS011;61944;52.538;6.108;2023-02-21T02:48:55;62.10;;;27.35;;
73650;SDS011;61944;52.538;6.108;2023-02-21T02:51:25;76.90;;;30.00;;
73650;SDS011;61944;52.538;6.108;2023-02-21T02:53:54;70.40;;;27.65;;
73650;SDS011;61944;52.538;6.108;2023-02-21T02:56:20;67.38;;;28.15;;
73650;SDS011;61944;52.538;6.108;2023-02-21T03:09:55;70.28;;;31.17;;
73650;SDS011;61944;52.538;6.108;2023-02-21T03:15:17;73.18;;;27.35;;
73650;SDS011;61944;52.538;6.108;2023-02-21T03:18:03;72.05;;;28.98;;
73650;SDS011;61944;52.538;6.108;2023-02-21T03:20:35;72.47;;;30.52;;
73650;SDS011;61944;52.538;6.108;2023-02-21T03:23:02;67.72;;;29.52;;
73650;SDS011;61944;52.538;6.108;2023-02-21T03:25:29;65.53;;;27.27;;
73650;SDS011;61944;52.538;6.108;2023-02-21T03:27:57;62.47;;;29.08;;
73650;SDS011;61944;52.538;6.108;2023-02-21T03:30:24;64.50;;;28.50;;
73650;SDS011;61944;52.538;6.108;2023-02-21T03:32:51;67.20;;;27.77;;
73650;SDS011;61944;52.538;6.108;2023-02-21T03:35:18;74.97;;;28.00;;
73650;SDS011;61944;52.538;6.108;2023-02-21T03:37:46;64.28;;;26.65;;
73650;SDS011;61944;52.538;6.108;2023-02-21T03:40:15;61.78;;;27.73;;
73650;SDS011;61944;52.538;6.108;2023-02-21T03:42:43;72.45;;;29.15;;
73650;SDS011;61944;52.538;6.108;2023-02-21T03:45:09;70.35;;;27.83;;
73650;SDS011;61944;52.538;6.108;2023-02-21T03:47:34;70.68;;;29.02;;
73650;SDS011;61944;52.538;6.108;2023-02-21T03:50:00;68.25;;;27.38;;
73650;SDS011;61944;52.538;6.108;2023-02-21T03:52:25;72.63;;;28.85;;
73650;SDS011;61944;52.538;6.108;2023-02-21T03:54:51;73.82;;;28.35;;
73650;SDS011;61944;52.538;6.108;2023-02-21T03:57:16;64.10;;;27.67;;
73650;SDS011;61944;52.538;6.108;2023-02-21T03:59:42;79.88;;;32.10;;
73650;SDS011;61944;52.538;6.108;2023-02-21T04:02:07;69.75;;;26.50;;
73650;SDS011;61944;52.538;6.108;2023-02-21T04:04:33;73.25;;;29.38;;
73650;SDS011;61944;52.538;6.108;2023-02-21T04:06:58;67.85;;;28.42;;
73650;SDS011;61944;52.538;6.108;2023-02-21T04:09:23;75.15;;;31.13;;
73650;SDS011;61944;52.538;6.108;2023-02-21T04:11:50;72.38;;;31.10;;
73650;SDS011;61944;52.538;6.108;2023-02-21T04:14:16;80.55;;;31.58;;
73650;SDS011;61944;52.538;6.108;2023-02-21T04:16:42;72.63;;;30.48;;
73650;SDS011;61944;52.538;6.108;2023-02-21T04:19:07;96.95;;;30.30;;
73650;SDS011;61944;52.538;6.108;2023-02-21T04:21:33;75.57;;;29.88;;
73650;SDS011;61944;52.538;6.108;2023-02-21T04:24:02;88.80;;;33.35;;
73650;SDS011;61944;52.538;6.108;2023-02-21T04:26:27;75.07;;;31.20;;
73650;SDS011;61944;52.538;6.108;2023-02-21T04:28:54;83.15;;;30.00;;
73650;SDS011;61944;52.538;6.108;2023-02-21T04:31:20;76.85;;;31.48;;
73650;SDS011;61944;52.538;6.108;2023-02-21T04:33:46;80.32;;;31.17;;
73650;SDS011;61944;52.538;6.108;2023-02-21T04:36:12;75.65;;;33.15;;
73650;SDS011;61944;52.538;6.108;2023-02-21T04:38:38;80.72;;;34.20;;
73650;SDS011;61944;52.538;6.108;2023-02-21T04:41:03;83.03;;;33.42;;
73650;SDS011;61944;52.538;6.108;2023-02-21T04:43:29;85.40;;;32.88;;
73650;SDS011;61944;52.538;6.108;2023-02-21T04:45:55;84.20;;;35.33;;
73650;SDS011;61944;52.538;6.108;2023-02-21T04:48:20;86.25;;;35.67;;
73650;SDS011;61944;52.538;6.108;2023-02-21T04:50:46;81.70;;;32.97;;
73650;SDS011;61944;52.538;6.108;2023-02-21T04:53:11;80.65;;;31.63;;
73650;SDS011;61944;52.538;6.108;2023-02-21T04:55:37;85.68;;;33.53;;
73650;SDS011;61944;52.538;6.108;2023-02-21T04:58:02;89.43;;;31.55;;
73650;SDS011;61944;52.538;6.108;2023-02-21T05:00:28;85.60;;;33.72;;
73650;SDS011;61944;52.538;6.108;2023-02-21T05:02:53;104.45;;;35.72;;
73650;SDS011;61944;52.538;6.108;2023-02-21T05:05:18;82.82;;;34.85;;
73650;SDS011;61944;52.538;6.108;2023-02-21T05:07:44;78.10;;;30.02;;
73650;SDS011;61944;52.538;6.108;2023-02-21T05:10:09;88.32;;;34.55;;
73650;SDS011;61944;52.538;6.108;2023-02-21T05:12:36;82.53;;;33.55;;
73650;SDS011;61944;52.538;6.108;2023-02-21T05:15:04;90.32;;;33.03;;
73650;SDS011;61944;52.538;6.108;2023-02-21T05:17:30;87.03;;;34.78;;
73650;SDS011;61944;52.538;6.108;2023-02-21T05:19:56;86.40;;;33.58;;
73650;SDS011;61944;52.538;6.108;2023-02-21T05:22:21;86.50;;;34.33;;
73650;SDS011;61944;52.538;6.108;2023-02-21T05:24:47;85.78;;;33.75;;
73650;SDS011;61944;52.538;6.108;2023-02-21T05:27:13;90.28;;;33.20;;
73650;SDS011;61944;52.538;6.108;2023-02-21T05:29:51;98.95;;;35.85;;
73650;SDS011;61944;52.538;6.108;2023-02-21T05:32:18;87.75;;;34.72;;
73650;SDS011;61944;52.538;6.108;2023-02-21T05:34:45;103.68;;;35.50;;
73650;SDS011;61944;52.538;6.108;2023-02-21T05:37:15;78.20;;;33.65;;
73650;SDS011;61944;52.538;6.108;2023-02-21T05:39:41;88.90;;;36.75;;
73650;SDS011;61944;52.538;6.108;2023-02-21T05:42:07;95.50;;;35.38;;
73650;SDS011;61944;52.538;6.108;2023-02-21T05:44:33;99.10;;;35.58;;
73650;SDS011;61944;52.538;6.108;2023-02-21T05:46:58;88.30;;;32.92;;
73650;SDS011;61944;52.538;6.108;2023-02-21T05:49:26;87.75;;;34.55;;
73650;SDS011;61944;52.538;6.108;2023-02-21T05:51:51;96.13;;;34.35;;
73650;SDS011;61944;52.538;6.108;2023-02-21T05:54:18;94.13;;;36.17;;
73650;SDS011;61944;52.538;6.108;2023-02-21T05:56:45;88.68;;;34.45;;
73650;SDS011;61944;52.538;6.108;2023-02-21T05:59:13;90.82;;;33.65;;
73650;SDS011;61944;52.538;6.108;2023-02-21T06:01:39;89.30;;;35.45;;
73650;SDS011;61944;52.538;6.108;2023-02-21T06:04:05;103.32;;;37.78;;
73650;SDS011;61944;52.538;6.108;2023-02-21T06:06:32;95.45;;;34.10;;
73650;SDS011;61944;52.538;6.108;2023-02-21T06:08:58;90.10;;;36.03;;
73650;SDS011;61944;52.538;6.108;2023-02-21T06:11:24;108.45;;;37.15;;
73650;SDS011;61944;52.538;6.108;2023-02-21T06:13:52;106.43;;;39.10;;
73650;SDS011;61944;52.538;6.108;2023-02-21T06:16:19;96.93;;;36.67;;
73650;SDS011;61944;52.538;6.108;2023-02-21T06:18:48;103.07;;;38.10;;
73650;SDS011;61944;52.538;6.108;2023-02-21T06:21:15;104.65;;;36.97;;
73650;SDS011;61944;52.538;6.108;2023-02-21T06:23:40;93.50;;;35.72;;
73650;SDS011;61944;52.538;6.108;2023-02-21T06:26:06;104.95;;;38.05;;
73650;SDS011;61944;52.538;6.108;2023-02-21T06:28:31;103.65;;;42.22;;
73650;SDS011;61944;52.538;6.108;2023-02-21T06:30:56;101.65;;;38.42;;
73650;SDS011;61944;52.538;6.108;2023-02-21T06:33:23;112.65;;;39.22;;
73650;SDS011;61944;52.538;6.108;2023-02-21T06:35:48;110.55;;;39.63;;
73650;SDS011;61944;52.538;6.108;2023-02-21T06:38:14;99.18;;;37.25;;
73650;SDS011;61944;52.538;6.108;2023-02-21T06:40:39;102.45;;;40.03;;
73650;SDS011;61944;52.538;6.108;2023-02-21T06:43:05;113.13;;;42.72;;
73650;SDS011;61944;52.538;6.108;2023-02-21T06:45:30;112.22;;;41.95;;
73650;SDS011;61944;52.538;6.108;2023-02-21T06:47:55;106.95;;;41.45;;
73650;SDS011;61944;52.538;6.108;2023-02-21T06:50:21;102.13;;;39.78;;
73650;SDS011;61944;52.538;6.108;2023-02-21T06:52:46;95.22;;;37.50;;
73650;SDS011;61944;52.538;6.108;2023-02-21T06:55:12;107.15;;;41.15;;
73650;SDS011;61944;52.538;6.108;2023-02-21T06:57:37;113.00;;;40.20;;
73650;SDS011;61944;52.538;6.108;2023-02-21T07:00:03;119.28;;;40.65;;
73650;SDS011;61944;52.538;6.108;2023-02-21T07:02:29;103.53;;;38.75;;
73650;SDS011;61944;52.538;6.108;2023-02-21T07:04:55;77.90;;;30.70;;
73650;SDS011;61944;52.538;6.108;2023-02-21T07:07:20;108.70;;;41.83;;
73650;SDS011;61944;52.538;6.108;2023-02-21T07:09:45;104.75;;;39.38;;
73650;SDS011;61944;52.538;6.108;2023-02-21T07:12:11;127.45;;;45.58;;
73650;SDS011;61944;52.538;6.108;2023-02-21T07:14:37;103.68;;;37.03;;
73650;SDS011;61944;52.538;6.108;2023-02-21T07:17:02;106.85;;;40.75;;
73650;SDS011;61944;52.538;6.108;2023-02-21T07:19:28;113.90;;;42.50;;
73650;SDS011;61944;52.538;6.108;2023-02-21T07:21:53;111.28;;;40.75;;
73650;SDS011;61944;52.538;6.108;2023-02-21T07:24:19;108.65;;;42.80;;
73650;SDS011;61944;52.538;6.108;2023-02-21T07:26:44;113.63;;;40.30;;
73650;SDS011;61944;52.538;6.108;2023-02-21T07:29:10;114.22;;;38.80;;
73650;SDS011;61944;52.538;6.108;2023-02-21T07:31:35;109.13;;;40.65;;
73650;SDS011;61944;52.538;6.108;2023-02-21T07:34:01;116.28;;;42.10;;
73650;SDS011;61944;52.538;6.108;2023-02-21T07:36:26;120.40;;;42.55;;
73650;SDS011;61944;52.538;6.108;2023-02-21T07:38:52;109.00;;;41.60;;
73650;SDS011;61944;52.538;6.108;2023-02-21T07:41:17;121.78;;;43.08;;
73650;SDS011;61944;52.538;6.108;2023-02-21T07:43:43;117.18;;;42.05;;
73650;SDS011;61944;52.538;6.108;2023-02-21T07:46:12;116.78;;;44.33;;
73650;SDS011;61944;52.538;6.108;2023-02-21T07:48:38;116.43;;;43.20;;
73650;SDS011;61944;52.538;6.108;2023-02-21T07:51:05;112.43;;;42.35;;
73650;SDS011;61944;52.538;6.108;2023-02-21T07:53:31;120.15;;;41.90;;
73650;SDS011;61944;52.538;6.108;2023-02-21T07:55:57;122.00;;;43.72;;
73650;SDS011;61944;52.538;6.108;2023-02-21T07:58:22;122.55;;;42.38;;
73650;SDS011;61944;52.538;6.108;2023-02-21T08:00:47;123.07;;;42.75;;
73650;SDS011;61944;52.538;6.108;2023-02-21T08:03:13;122.82;;;45.75;;
73650;SDS011;61944;52.538;6.108;2023-02-21T08:05:39;126.97;;;41.80;;
73650;SDS011;61944;52.538;6.108;2023-02-21T08:08:08;109.07;;;42.55;;
73650;SDS011;61944;52.538;6.108;2023-02-21T08:10:34;122.50;;;42.22;;
73650;SDS011;61944;52.538;6.108;2023-02-21T08:12:59;114.75;;;44.63;;
73650;SDS011;61944;52.538;6.108;2023-02-21T08:15:25;111.45;;;40.08;;
73650;SDS011;61944;52.538;6.108;2023-02-21T08:17:50;124.80;;;45.05;;
73650;SDS011;61944;52.538;6.108;2023-02-21T08:20:16;130.50;;;49.10;;
73650;SDS011;61944;52.538;6.108;2023-02-21T08:22:42;126.13;;;48.67;;
73650;SDS011;61944;52.538;6.108;2023-02-21T08:25:09;119.88;;;43.15;;
73650;SDS011;61944;52.538;6.108;2023-02-21T08:27:37;137.05;;;47.25;;
73650;SDS011;61944;52.538;6.108;2023-02-21T08:30:07;130.40;;;45.95;;
73650;SDS011;61944;52.538;6.108;2023-02-21T08:32:35;127.80;;;43.80;;
73650;SDS011;61944;52.538;6.108;2023-02-21T08:35:00;144.32;;;48.30;;
73650;SDS011;61944;52.538;6.108;2023-02-21T08:37:27;144.40;;;49.53;;
73650;SDS011;61944;52.538;6.108;2023-02-21T08:39:57;123.57;;;42.05;;
73650;SDS011;61944;52.538;6.108;2023-02-21T08:42:23;118.55;;;43.30;;
73650;SDS011;61944;52.538;6.108;2023-02-21T08:44:48;115.60;;;44.38;;
73650;SDS011;61944;52.538;6.108;2023-02-21T08:47:14;125.63;;;47.38;;
73650;SDS011;61944;52.538;6.108;2023-02-21T08:49:44;128.20;;;46.13;;
73650;SDS011;61944;52.538;6.108;2023-02-21T08:52:15;126.32;;;44.67;;
73650;SDS011;61944;52.538;6.108;2023-02-21T08:54:45;124.88;;;43.40;;
73650;SDS011;61944;52.538;6.108;2023-02-21T08:57:12;129.38;;;47.72;;
73650;SDS011;61944;52.538;6.108;2023-02-21T08:59:43;129.70;;;47.72;;
73650;SDS011;61944;52.538;6.108;2023-02-21T09:02:21;130.75;;;48.30;;
73650;SDS011;61944;52.538;6.108;2023-02-21T09:04:52;125.93;;;46.97;;
73650;SDS011;61944;52.538;6.108;2023-02-21T09:07:19;140.07;;;47.67;;
73650;SDS011;61944;52.538;6.108;2023-02-21T09:09:48;133.55;;;46.70;;
73650;SDS011;61944;52.538;6.108;2023-02-21T09:12:14;126.50;;;46.83;;
73650;SDS011;61944;52.538;6.108;2023-02-21T09:14:41;138.30;;;48.10;;
73650;SDS011;61944;52.538;6.108;2023-02-21T09:17:07;136.32;;;45.40;;
73650;SDS011;61944;52.538;6.108;2023-02-21T09:19:36;141.07;;;46.45;;
73650;SDS011;61944;52.538;6.108;2023-02-21T09:22:01;135.15;;;44.90;;
73650;SDS011;61944;52.538;6.108;2023-02-21T09:24:31;138.27;;;49.03;;
73650;SDS011;61944;52.538;6.108;2023-02-21T09:27:04;134.07;;;47.28;;
73650;SDS011;61944;52.538;6.108;2023-02-21T09:29:31;131.73;;;45.65;;
73650;SDS011;61944;52.538;6.108;2023-02-21T09:31:58;135.70;;;49.67;;
73650;SDS011;61944;52.538;6.108;2023-02-21T09:34:25;117.65;;;44.40;;
73650;SDS011;61944;52.538;6.108;2023-02-21T09:36:51;128.18;;;47.00;;
73650;SDS011;61944;52.538;6.108;2023-02-21T09:39:19;134.45;;;45.85;;
73650;SDS011;61944;52.538;6.108;2023-02-21T09:41:48;138.02;;;46.55;;
73650;SDS011;61944;52.538;6.108;2023-02-21T09:44:25;131.60;;;46.38;;
73650;SDS011;61944;52.538;6.108;2023-02-21T09:47:02;128.65;;;46.25;;
73650;SDS011;61944;52.538;6.108;2023-02-21T09:49:31;130.68;;;45.17;;
73650;SDS011;61944;52.538;6.108;2023-02-21T09:52:01;129.65;;;43.53;;
73650;SDS011;61944;52.538;6.108;2023-02-21T09:54:37;139.50;;;48.17;;
73650;SDS011;61944;52.538;6.108;2023-02-21T09:57:12;117.00;;;45.15;;
73650;SDS011;61944;52.538;6.108;2023-02-21T09:59:45;152.90;;;49.33;;
73650;SDS011;61944;52.538;6.108;2023-02-21T10:16:28;130.70;;;44.70;;
73650;SDS011;61944;52.538;6.108;2023-02-21T10:19:15;150.07;;;48.45;;
73650;SDS011;61944;52.538;6.108;2023-02-21T10:21:47;126.47;;;47.40;;
73650;SDS011;61944;52.538;6.108;2023-02-21T10:24:15;131.10;;;45.40;;
73650;SDS011;61944;52.538;6.108;2023-02-21T10:29:45;137.27;;;48.17;;
73650;SDS011;61944;52.538;6.108;2023-02-21T10:32:11;141.85;;;50.67;;
73650;SDS011;61944;52.538;6.108;2023-02-21T10:34:39;130.60;;;48.17;;
73650;SDS011;61944;52.538;6.108;2023-02-21T10:40:04;135.60;;;47.15;;
73650;SDS011;61944;52.538;6.108;2023-02-21T10:42:48;143.30;;;48.03;;
73650;SDS011;61944;52.538;6.108;2023-02-21T10:45:18;131.77;;;46.47;;
73650;SDS011;61944;52.538;6.108;2023-02-21T10:47:52;133.65;;;48.47;;
73650;SDS011;61944;52.538;6.108;2023-02-21T10:50:38;118.13;;;46.67;;
73650;SDS011;61944;52.538;6.108;2023-02-21T10:53:03;132.10;;;47.22;;
73650;SDS011;61944;52.538;6.108;2023-02-21T10:55:30;144.57;;;49.42;;
73650;SDS011;61944;52.538;6.108;2023-02-21T10:57:56;128.10;;;45.95;;
73650;SDS011;61944;52.538;6.108;2023-02-21T11:05:53;136.13;;;44.85;;
73650;SDS011;61944;52.538;6.108;2023-02-21T11:08:40;137.82;;;45.08;;
73650;SDS011;61944;52.538;6.108;2023-02-21T11:11:10;128.65;;;44.08;;
73650;SDS011;61944;52.538;6.108;2023-02-21T11:13:39;132.43;;;46.97;;
73650;SDS011;61944;52.538;6.108;2023-02-21T11:16:14;130.68;;;44.90;;
73650;SDS011;61944;52.538;6.108;2023-02-21T11:18:46;140.15;;;47.92;;
73650;SDS011;61944;52.538;6.108;2023-02-21T11:21:54;117.45;;;43.78;;
73650;SDS011;61944;52.538;6.108;2023-02-21T11:24:31;131.40;;;47.03;;
73650;SDS011;61944;52.538;6.108;2023-02-21T11:26:59;115.38;;;43.47;;
73650;SDS011;61944;52.538;6.108;2023-02-21T11:29:33;135.80;;;45.83;;
73650;SDS011;61944;52.538;6.108;2023-02-21T11:31:58;122.95;;;45.25;;
73650;SDS011;61944;52.538;6.108;2023-02-21T11:34:40;129.63;;;44.42;;
73650;SDS011;61944;52.538;6.108;2023-02-21T11:37:15;136.82;;;50.50;;
73650;SDS011;61944;52.538;6.108;2023-02-21T11:39:41;133.25;;;51.33;;
73650;SDS011;61944;52.538;6.108;2023-02-21T11:42:31;129.10;;;46.97;;
73650;SDS011;61944;52.538;6.108;2023-02-21T11:54:19;135.85;;;46.50;;
73650;SDS011;61944;52.538;6.108;2023-02-21T11:56:53;138.70;;;47.38;;
73650;SDS011;61944;52.538;6.108;2023-02-21T11:59:31;126.95;;;45.65;;
73650;SDS011;61944;52.538;6.108;2023-02-21T12:02:28;145.93;;;49.05;;
73650;SDS011;61944;52.538;6.108;2023-02-21T12:07:51;122.32;;;45.03;;
73650;SDS011;61944;52.538;6.108;2023-02-21T12:10:39;134.82;;;48.25;;
73650;SDS011;61944;52.538;6.108;2023-02-21T12:49:05;140.75;;;46.58;;
73650;SDS011;61944;52.538;6.108;2023-02-21T12:51:39;136.73;;;44.67;;
73650;SDS011;61944;52.538;6.108;2023-02-21T12:54:10;118.32;;;42.38;;
73650;SDS011;61944;52.538;6.108;2023-02-21T13:02:00;135.40;;;43.70;;
73650;SDS011;61944;52.538;6.108;2023-02-21T13:04:46;116.95;;;42.28;;
73650;SDS011;61944;52.538;6.108;2023-02-21T13:07:22;122.47;;;43.00;;
73650;SDS011;61944;52.538;6.108;2023-02-21T13:09:57;135.93;;;47.55;;
73650;SDS011;61944;52.538;6.108;2023-02-21T13:15:18;128.48;;;43.50;;
73650;SDS011;61944;52.538;6.108;2023-02-21T13:17:50;131.15;;;47.15;;
73650;SDS011;61944;52.538;6.108;2023-02-21T13:20:27;132.85;;;47.97;;
73650;SDS011;61944;52.538;6.108;2023-02-21T13:22:59;131.70;;;45.42;;
73650;SDS011;61944;52.538;6.108;2023-02-21T13:26:21;111.82;;;41.58;;
73650;SDS011;61944;52.538;6.108;2023-02-21T13:29:22;111.60;;;41.90;;
73650;SDS011;61944;52.538;6.108;2023-02-21T13:31:58;131.38;;;43.92;;
73650;SDS011;61944;52.538;6.108;2023-02-21T13:34:27;121.38;;;40.42;;
73650;SDS011;61944;52.538;6.108;2023-02-21T13:37:00;145.00;;;47.80;;
73650;SDS011;61944;52.538;6.108;2023-02-21T13:39:29;142.02;;;47.40;;
73650;SDS011;61944;52.538;6.108;2023-02-21T13:42:04;121.32;;;43.90;;
73650;SDS011;61944;52.538;6.108;2023-02-21T14:02:54;134.90;;;45.97;;
73650;SDS011;61944;52.538;6.108;2023-02-21T14:18:38;136.77;;;45.30;;
73650;SDS011;61944;52.538;6.108;2023-02-21T14:21:09;153.43;;;47.22;;
73650;SDS011;61944;52.538;6.108;2023-02-21T14:23:45;140.05;;;44.28;;
73650;SDS011;61944;52.538;6.108;2023-02-21T14:28:59;146.85;;;48.72;;
73650;SDS011;61944;52.538;6.108;2023-02-21T14:31:45;149.23;;;46.88;;
73650;SDS011;61944;52.538;6.108;2023-02-21T14:34:13;128.55;;;44.92;;
73650;SDS011;61944;52.538;6.108;2023-02-21T14:36:44;135.05;;;45.90;;
73650;SDS011;61944;52.538;6.108;2023-02-21T14:39:13;113.03;;;39.92;;
73650;SDS011;61944;52.538;6.108;2023-02-21T14:41:49;135.13;;;46.47;;
73650;SDS011;61944;52.538;6.108;2023-02-21T15:07:00;121.22;;;42.95;;
73650;SDS011;61944;52.538;6.108;2023-02-21T15:09:43;135.45;;;40.10;;
73650;SDS011;61944;52.538;6.108;2023-02-21T15:12:14;119.65;;;40.08;;
73650;SDS011;61944;52.538;6.108;2023-02-21T15:14:50;124.20;;;41.92;;
73650;SDS011;61944;52.538;6.108;2023-02-21T15:17:18;116.47;;;37.95;;
73650;SDS011;61944;52.538;6.108;2023-02-21T15:19:46;126.68;;;40.83;;
73650;SDS011;61944;52.538;6.108;2023-02-21T15:22:16;130.88;;;42.60;;
73650;SDS011;61944;52.538;6.108;2023-02-21T15:27:35;120.78;;;37.38;;
73650;SDS011;61944;52.538;6.108;2023-02-21T15:30:04;119.20;;;40.70;;
73650;SDS011;61944;52.538;6.108;2023-02-21T15:32:40;115.55;;;37.88;;
73650;SDS011;61944;52.538;6.108;2023-02-21T15:35:09;122.47;;;39.35;;
73650;SDS011;61944;52.538;6.108;2023-02-21T15:37:42;128.43;;;41.28;;
73650;SDS011;61944;52.538;6.108;2023-02-21T15:40:14;127.43;;;41.75;;
73650;SDS011;61944;52.538;6.108;2023-02-21T15:42:48;108.20;;;37.65;;
73650;SDS011;61944;52.538;6.108;2023-02-21T15:45:27;121.13;;;39.78;;
73650;SDS011;61944;52.538;6.108;2023-02-21T15:47:57;115.68;;;37.15;;
73650;SDS011;61944;52.538;6.108;2023-02-21T15:53:19;121.72;;;36.28;;
73650;SDS011;61944;52.538;6.108;2023-02-21T15:55:50;107.40;;;35.38;;
73650;SDS011;61944;52.538;6.108;2023-02-21T15:58:23;128.95;;;37.95;;
73650;SDS011;61944;52.538;6.108;2023-02-21T16:01:04;118.07;;;36.72;;
73650;SDS011;61944;52.538;6.108;2023-02-21T16:06:24;98.63;;;31.20;;
73650;SDS011;61944;52.538;6.108;2023-02-21T16:12:27;86.38;;;30.17;;
73650;SDS011;61944;52.538;6.108;2023-02-21T16:14:55;99.90;;;31.25;;
73650;SDS011;61944;52.538;6.108;2023-02-21T16:17:26;95.88;;;26.80;;
73650;SDS011;61944;52.538;6.108;2023-02-21T16:19:57;90.32;;;30.38;;
73650;SDS011;61944;52.538;6.108;2023-02-21T16:22:35;91.20;;;29.75;;
73650;SDS011;61944;52.538;6.108;2023-02-21T16:27:48;85.93;;;27.23;;
73650;SDS011;61944;52.538;6.108;2023-02-21T16:30:25;84.85;;;29.33;;
73650;SDS011;61944;52.538;6.108;2023-02-21T16:32:53;80.35;;;26.42;;
73650;SDS011;61944;52.538;6.108;2023-02-21T16:35:24;99.70;;;28.77;;
73650;SDS011;61944;52.538;6.108;2023-02-21T16:37:51;88.03;;;27.80;;
73650;SDS011;61944;52.538;6.108;2023-02-21T16:40:20;79.63;;;25.60;;
73650;SDS011;61944;52.538;6.108;2023-02-21T16:42:52;94.60;;;31.38;;
73650;SDS011;61944;52.538;6.108;2023-02-21T16:45:19;91.63;;;26.27;;
73650;SDS011;61944;52.538;6.108;2023-02-21T16:47:46;86.93;;;27.75;;
73650;SDS011;61944;52.538;6.108;2023-02-21T16:50:30;87.90;;;27.25;;
73650;SDS011;61944;52.538;6.108;2023-02-21T16:52:59;93.97;;;28.33;;
73650;SDS011;61944;52.538;6.108;2023-02-21T16:55:25;91.13;;;28.05;;
73650;SDS011;61944;52.538;6.108;2023-02-21T16:57:52;85.05;;;27.17;;
73650;SDS011;61944;52.538;6.108;2023-02-21T17:00:30;85.22;;;29.70;;
73650;SDS011;61944;52.538;6.108;2023-02-21T17:02:57;89.47;;;29.10;;
73650;SDS011;61944;52.538;6.108;2023-02-21T17:05:23;84.43;;;27.38;;
73650;SDS011;61944;52.538;6.108;2023-02-21T17:07:54;100.30;;;32.80;;
73650;SDS011;61944;52.538;6.108;2023-02-21T17:10:21;91.13;;;28.67;;
73650;SDS011;61944;52.538;6.108;2023-02-21T17:12:47;87.13;;;31.40;;
73650;SDS011;61944;52.538;6.108;2023-02-21T17:15:12;85.78;;;27.23;;
73650;SDS011;61944;52.538;6.108;2023-02-21T17:17:38;84.95;;;28.42;;
73650;SDS011;61944;52.538;6.108;2023-02-21T17:20:05;95.63;;;31.23;;
73650;SDS011;61944;52.538;6.108;2023-02-21T17:22:31;97.55;;;30.45;;
73650;SDS011;61944;52.538;6.108;2023-02-21T17:24:56;96.25;;;30.50;;
73650;SDS011;61944;52.538;6.108;2023-02-21T17:27:22;84.95;;;30.63;;
73650;SDS011;61944;52.538;6.108;2023-02-21T17:29:47;99.72;;;33.58;;
73650;SDS011;61944;52.538;6.108;2023-02-21T17:32:13;92.97;;;31.42;;
73650;SDS011;61944;52.538;6.108;2023-02-21T17:34:39;94.53;;;28.95;;
73650;SDS011;61944;52.538;6.108;2023-02-21T17:37:07;92.70;;;27.50;;
73650;SDS011;61944;52.538;6.108;2023-02-21T17:39:33;92.93;;;29.83;;
73650;SDS011;61944;52.538;6.108;2023-02-21T17:42:00;94.78;;;30.85;;
73650;SDS011;61944;52.538;6.108;2023-02-21T17:44:26;100.05;;;30.02;;
73650;SDS011;61944;52.538;6.108;2023-02-21T17:46:53;100.35;;;28.20;;
73650;SDS011;61944;52.538;6.108;2023-02-21T17:49:24;88.75;;;27.60;;
73650;SDS011;61944;52.538;6.108;2023-02-21T17:51:51;95.45;;;28.92;;
73650;SDS011;61944;52.538;6.108;2023-02-21T17:54:21;82.63;;;27.65;;
73650;SDS011;61944;52.538;6.108;2023-02-21T17:56:52;85.93;;;26.58;;